CFG215 EDLW-EDDH
Flight info
| Callsign | CFG215 |
|---|---|
| Flight time | 0h 37m |
| Altitude | 23000 |
| Route | OSN8Q OSN DCT BASUM DCT MUBZI DCT RIBSO RIBSO7A |
| Aircraft | A320/M-SDE3FGHIRWY/LB1 |
Departure
| Time | 2026-05-06 14:36 |
|---|---|
| Airport | Dortmund Airport (EDLW) |
Arrival
| Time | 2026-05-06 15:13 |
|---|---|
| Airport | Hamburg Helmut Schmidt Airport (EDDH) |
| Time | Latitude | Longitude | Altitude | Speed | Heading |
|---|---|---|---|---|---|
| 2026-05-06 13:45 | 51.51619 | 7.61421 | 434 ft | 0 kts | 152° |
| 2026-05-06 13:53 | 51.51628 | 7.61413 | 421 ft | 3 kts | 152° |
| 2026-05-06 13:53 | 51.51631 | 7.61410 | 421 ft | 0 kts | 152° |
| 2026-05-06 13:53 | 51.51634 | 7.61407 | 421 ft | 3 kts | 154° |
| 2026-05-06 13:54 | 51.51651 | 7.61397 | 425 ft | 2 kts | 160° |
| 2026-05-06 13:54 | 51.51667 | 7.61389 | 429 ft | 3 kts | 182° |
| 2026-05-06 13:54 | 51.51684 | 7.61394 | 429 ft | 2 kts | 195° |
| 2026-05-06 13:54 | 51.51700 | 7.61406 | 428 ft | 2 kts | 225° |
| 2026-05-06 13:55 | 51.51711 | 7.61427 | 415 ft | 2 kts | 233° |
| 2026-05-06 13:55 | 51.51717 | 7.61438 | 415 ft | 0 kts | 239° |
| 2026-05-06 13:58 | 51.51619 | 7.61421 | 435 ft | 0 kts | 152° |
| 2026-05-06 14:22 | 51.51623 | 7.61417 | 433 ft | 3 kts | 152° |
| 2026-05-06 14:23 | 51.51639 | 7.61404 | 419 ft | 3 kts | 154° |
| 2026-05-06 14:23 | 51.51656 | 7.61397 | 423 ft | 3 kts | 192° |
| 2026-05-06 14:23 | 51.51672 | 7.61405 | 424 ft | 2 kts | 201° |
| 2026-05-06 14:23 | 51.51687 | 7.61412 | 426 ft | 2 kts | 182° |
| 2026-05-06 14:24 | 51.51704 | 7.61417 | 417 ft | 3 kts | 215° |
| 2026-05-06 14:24 | 51.51714 | 7.61431 | 420 ft | 0 kts | 239° |
| 2026-05-06 14:30 | 51.51696 | 7.61382 | 419 ft | 14 kts | 242° |
| 2026-05-06 14:30 | 51.51659 | 7.61277 | 425 ft | 10 kts | 241° |
| 2026-05-06 14:30 | 51.51607 | 7.61126 | 427 ft | 17 kts | 244° |
| 2026-05-06 14:31 | 51.51559 | 7.60960 | 429 ft | 18 kts | 242° |
| 2026-05-06 14:31 | 51.51492 | 7.60767 | 430 ft | 22 kts | 242° |
| 2026-05-06 14:31 | 51.51414 | 7.60548 | 424 ft | 21 kts | 240° |
| 2026-05-06 14:31 | 51.51394 | 7.60495 | 431 ft | 0 kts | 239° |
| 2026-05-06 14:32 | 51.51392 | 7.60490 | 431 ft | 5 kts | 239° |
| 2026-05-06 14:33 | 51.51356 | 7.60335 | 432 ft | 13 kts | 291° |
| 2026-05-06 14:33 | 51.51427 | 7.60248 | 420 ft | 13 kts | 338° |
| 2026-05-06 14:33 | 51.51505 | 7.60302 | 423 ft | 13 kts | 55° |
| 2026-05-06 14:33 | 51.51517 | 7.60334 | 428 ft | 0 kts | 59° |
| 2026-05-06 14:34 | 51.51520 | 7.60342 | 428 ft | 2 kts | 60° |
| 2026-05-06 14:34 | 51.51533 | 7.60380 | 421 ft | 6 kts | 60° |
| 2026-05-06 14:34 | 51.51564 | 7.60467 | 425 ft | 12 kts | 60° |
| 2026-05-06 14:35 | 51.51618 | 7.60620 | 418 ft | 23 kts | 62° |
| 2026-05-06 14:35 | 51.51822 | 7.61191 | 417 ft | 95 kts | 61° |
| 2026-05-06 14:35 | 51.52274 | 7.62445 | 453 ft | 157 kts | 58° |
| 2026-05-06 14:35 | 51.52825 | 7.63999 | 1014 ft | 164 kts | 57° |
| 2026-05-06 14:36 | 51.53412 | 7.65650 | 1743 ft | 175 kts | 59° |
| 2026-05-06 14:36 | 51.53986 | 7.67320 | 2558 ft | 175 kts | 58° |
| 2026-05-06 14:36 | 51.54611 | 7.69128 | 3100 ft | 193 kts | 58° |
| 2026-05-06 14:36 | 51.55291 | 7.71075 | 3686 ft | 211 kts | 58° |
| 2026-05-06 14:37 | 51.56041 | 7.73210 | 4354 ft | 228 kts | 58° |
| 2026-05-06 14:37 | 51.56854 | 7.75509 | 4953 ft | 244 kts | 59° |
| 2026-05-06 14:37 | 51.57726 | 7.77946 | 5546 ft | 257 kts | 56° |
| 2026-05-06 14:37 | 51.59028 | 7.79932 | 6166 ft | 265 kts | 23° |
| 2026-05-06 14:38 | 51.60848 | 7.80475 | 6733 ft | 273 kts | 355° |
| 2026-05-06 14:38 | 51.62747 | 7.80010 | 7303 ft | 278 kts | 344° |
| 2026-05-06 14:38 | 51.64618 | 7.79169 | 7894 ft | 280 kts | 341° |
| 2026-05-06 14:38 | 51.66488 | 7.78238 | 8485 ft | 283 kts | 341° |
| 2026-05-06 14:39 | 51.68389 | 7.77331 | 9088 ft | 286 kts | 342° |
| 2026-05-06 14:39 | 51.70345 | 7.76705 | 9699 ft | 289 kts | 358° |
| 2026-05-06 14:39 | 51.72340 | 7.77253 | 10272 ft | 297 kts | 21° |
| 2026-05-06 14:39 | 51.74168 | 7.78843 | 10834 ft | 307 kts | 29° |
| 2026-05-06 14:40 | 51.76061 | 7.80633 | 11418 ft | 316 kts | 29° |
| 2026-05-06 14:40 | 51.77961 | 7.82435 | 12005 ft | 324 kts | 29° |
| 2026-05-06 14:40 | 51.79927 | 7.84300 | 12607 ft | 332 kts | 29° |
| 2026-05-06 14:40 | 51.81941 | 7.86216 | 13226 ft | 339 kts | 29° |
| 2026-05-06 14:41 | 51.84000 | 7.88175 | 13826 ft | 348 kts | 29° |
| 2026-05-06 14:41 | 51.86107 | 7.90183 | 14377 ft | 355 kts | 29° |
| 2026-05-06 14:41 | 51.88245 | 7.92222 | 14947 ft | 359 kts | 29° |
| 2026-05-06 14:41 | 51.90418 | 7.94291 | 15525 ft | 364 kts | 29° |
| 2026-05-06 14:42 | 51.92611 | 7.96379 | 16108 ft | 367 kts | 29° |
| 2026-05-06 14:42 | 51.94829 | 7.98489 | 16715 ft | 371 kts | 29° |
| 2026-05-06 14:42 | 51.97068 | 8.00620 | 17316 ft | 374 kts | 29° |
| 2026-05-06 14:42 | 51.99320 | 8.02767 | 17948 ft | 376 kts | 29° |
| 2026-05-06 14:43 | 52.01579 | 8.04929 | 18520 ft | 378 kts | 29° |
| 2026-05-06 14:43 | 52.03851 | 8.07110 | 19068 ft | 379 kts | 29° |
| 2026-05-06 14:43 | 52.06128 | 8.09299 | 19636 ft | 381 kts | 29° |
| 2026-05-06 14:43 | 52.08412 | 8.11494 | 20207 ft | 382 kts | 29° |
| 2026-05-06 14:44 | 52.10708 | 8.13704 | 20793 ft | 386 kts | 29° |
| 2026-05-06 14:44 | 52.13027 | 8.15939 | 21391 ft | 389 kts | 29° |
| 2026-05-06 14:44 | 52.15366 | 8.18195 | 21996 ft | 391 kts | 29° |
| 2026-05-06 14:45 | 52.20031 | 8.22700 | 22953 ft | 398 kts | 29° |
| 2026-05-06 14:45 | 52.22454 | 8.25041 | 23018 ft | 412 kts | 29° |
| 2026-05-06 14:45 | 52.24952 | 8.27460 | 23019 ft | 425 kts | 29° |
| 2026-05-06 14:45 | 52.27537 | 8.29970 | 23021 ft | 435 kts | 30° |
| 2026-05-06 14:46 | 52.30146 | 8.32508 | 23025 ft | 437 kts | 30° |
| 2026-05-06 14:46 | 52.32765 | 8.35059 | 23025 ft | 438 kts | 30° |
| 2026-05-06 14:46 | 52.35391 | 8.37614 | 23027 ft | 439 kts | 30° |
| 2026-05-06 14:46 | 52.38003 | 8.40154 | 23029 ft | 439 kts | 30° |
| 2026-05-06 14:47 | 52.40638 | 8.42727 | 23029 ft | 438 kts | 30° |
| 2026-05-06 14:47 | 52.43249 | 8.45287 | 23034 ft | 438 kts | 30° |
| 2026-05-06 14:47 | 52.45865 | 8.47862 | 23031 ft | 439 kts | 30° |
| 2026-05-06 14:47 | 52.48454 | 8.50416 | 23031 ft | 438 kts | 31° |
| 2026-05-06 14:48 | 52.51071 | 8.52994 | 23032 ft | 439 kts | 30° |
| 2026-05-06 14:48 | 52.53697 | 8.55571 | 23030 ft | 439 kts | 31° |
| 2026-05-06 14:48 | 52.56317 | 8.58143 | 23033 ft | 439 kts | 31° |
| 2026-05-06 14:48 | 52.58942 | 8.60726 | 23032 ft | 439 kts | 31° |
| 2026-05-06 14:49 | 52.61563 | 8.63310 | 23031 ft | 439 kts | 31° |
| 2026-05-06 14:49 | 52.64186 | 8.65901 | 23033 ft | 439 kts | 31° |
| 2026-05-06 14:49 | 52.66800 | 8.68488 | 23033 ft | 439 kts | 31° |
| 2026-05-06 14:49 | 52.69425 | 8.71096 | 23029 ft | 440 kts | 31° |
| 2026-05-06 14:50 | 52.72043 | 8.73704 | 23035 ft | 439 kts | 31° |
| 2026-05-06 14:50 | 52.74661 | 8.76293 | 23033 ft | 439 kts | 29° |
| 2026-05-06 14:50 | 52.77439 | 8.78410 | 23046 ft | 440 kts | 20° |
| 2026-05-06 14:50 | 52.80384 | 8.79765 | 23049 ft | 440 kts | 11° |
| 2026-05-06 14:51 | 52.83409 | 8.80609 | 23052 ft | 440 kts | 9° |
| 2026-05-06 14:51 | 52.86431 | 8.81456 | 23054 ft | 440 kts | 10° |
| 2026-05-06 14:51 | 52.89433 | 8.82313 | 22703 ft | 435 kts | 10° |
| 2026-05-06 14:51 | 52.92409 | 8.83170 | 22047 ft | 431 kts | 10° |
| 2026-05-06 14:52 | 52.95345 | 8.84021 | 21522 ft | 425 kts | 10° |
| 2026-05-06 14:52 | 52.98245 | 8.84860 | 21001 ft | 422 kts | 10° |
| 2026-05-06 14:52 | 53.01124 | 8.85693 | 20490 ft | 419 kts | 10° |
| 2026-05-06 14:52 | 53.03993 | 8.86523 | 19988 ft | 417 kts | 10° |
| 2026-05-06 14:53 | 53.06841 | 8.87349 | 19484 ft | 414 kts | 10° |
| 2026-05-06 14:53 | 53.09670 | 8.88167 | 19009 ft | 411 kts | 10° |
| 2026-05-06 14:53 | 53.12473 | 8.88977 | 18533 ft | 408 kts | 10° |
| 2026-05-06 14:53 | 53.15262 | 8.89787 | 17986 ft | 406 kts | 10° |
| 2026-05-06 14:54 | 53.18051 | 8.90598 | 17188 ft | 408 kts | 10° |
| 2026-05-06 14:54 | 53.20860 | 8.91408 | 16396 ft | 410 kts | 10° |
| 2026-05-06 14:54 | 53.23674 | 8.92218 | 15631 ft | 411 kts | 11° |
| 2026-05-06 14:54 | 53.26495 | 8.93036 | 14879 ft | 412 kts | 11° |
| 2026-05-06 14:55 | 53.29284 | 8.93849 | 14134 ft | 399 kts | 11° |
| 2026-05-06 14:55 | 53.31965 | 8.94626 | 13386 ft | 383 kts | 11° |
| 2026-05-06 14:55 | 53.34206 | 8.95277 | 12690 ft | 371 kts | 11° |
| 2026-05-06 14:55 | 53.36672 | 8.96005 | 11925 ft | 359 kts | 11° |
| 2026-05-06 14:56 | 53.39113 | 8.96727 | 11282 ft | 354 kts | 11° |
| 2026-05-06 14:56 | 53.41539 | 8.97442 | 11084 ft | 353 kts | 11° |
| 2026-05-06 14:56 | 53.43883 | 8.98597 | 11047 ft | 352 kts | 27° |
| 2026-05-06 14:56 | 53.45838 | 9.00855 | 11054 ft | 328 kts | 45° |
| 2026-05-06 14:57 | 53.47154 | 9.03738 | 11057 ft | 296 kts | 62° |
| 2026-05-06 14:57 | 53.47865 | 9.06872 | 11060 ft | 288 kts | 78° |
| 2026-05-06 14:57 | 53.48038 | 9.10215 | 11059 ft | 288 kts | 93° |
| 2026-05-06 14:57 | 53.47777 | 9.13552 | 11061 ft | 288 kts | 97° |
| 2026-05-06 14:58 | 53.47485 | 9.16862 | 11055 ft | 280 kts | 97° |
| 2026-05-06 14:58 | 53.47216 | 9.19946 | 11056 ft | 253 kts | 97° |
| 2026-05-06 14:58 | 53.46966 | 9.22821 | 11059 ft | 249 kts | 97° |
| 2026-05-06 14:58 | 53.46716 | 9.25700 | 11057 ft | 249 kts | 97° |
| 2026-05-06 14:59 | 53.46469 | 9.28523 | 11056 ft | 237 kts | 97° |
| 2026-05-06 14:59 | 53.46238 | 9.31180 | 11059 ft | 233 kts | 98° |
| 2026-05-06 14:59 | 53.46001 | 9.33880 | 11057 ft | 233 kts | 98° |
| 2026-05-06 14:59 | 53.45764 | 9.36566 | 11059 ft | 233 kts | 98° |
| 2026-05-06 15:00 | 53.45526 | 9.39254 | 11061 ft | 233 kts | 98° |
| 2026-05-06 15:00 | 53.45289 | 9.41938 | 11061 ft | 232 kts | 98° |
| 2026-05-06 15:00 | 53.45049 | 9.44614 | 11062 ft | 232 kts | 98° |
| 2026-05-06 15:00 | 53.44806 | 9.47291 | 11060 ft | 232 kts | 98° |
| 2026-05-06 15:01 | 53.44565 | 9.49967 | 11060 ft | 232 kts | 98° |
| 2026-05-06 15:01 | 53.44324 | 9.52644 | 11057 ft | 231 kts | 98° |
| 2026-05-06 15:01 | 53.44086 | 9.55309 | 11059 ft | 231 kts | 98° |
| 2026-05-06 15:01 | 53.43855 | 9.57988 | 10815 ft | 237 kts | 98° |
| 2026-05-06 15:02 | 53.43607 | 9.60826 | 9962 ft | 259 kts | 98° |
| 2026-05-06 15:02 | 53.43323 | 9.63904 | 9156 ft | 273 kts | 98° |
| 2026-05-06 15:02 | 53.43017 | 9.67127 | 8365 ft | 285 kts | 98° |
| 2026-05-06 15:02 | 53.42734 | 9.70473 | 7593 ft | 295 kts | 92° |
| 2026-05-06 15:03 | 53.43082 | 9.73890 | 6831 ft | 304 kts | 67° |
| 2026-05-06 15:03 | 53.44300 | 9.76830 | 6068 ft | 313 kts | 43° |
| 2026-05-06 15:03 | 53.46181 | 9.78715 | 5276 ft | 321 kts | 20° |
| 2026-05-06 15:03 | 53.48413 | 9.79182 | 4491 ft | 328 kts | 357° |
| 2026-05-06 15:04 | 53.50617 | 9.78117 | 3704 ft | 335 kts | 335° |
| 2026-05-06 15:04 | 53.52434 | 9.75655 | 3154 ft | 335 kts | 315° |
| 2026-05-06 15:04 | 53.53988 | 9.72876 | 2993 ft | 315 kts | 317° |
| 2026-05-06 15:04 | 53.55147 | 9.69898 | 3002 ft | 299 kts | 292° |
| 2026-05-06 15:05 | 53.55418 | 9.66568 | 3005 ft | 282 kts | 265° |
| 2026-05-06 15:05 | 53.54799 | 9.63586 | 3007 ft | 262 kts | 234° |
| 2026-05-06 15:05 | 53.53515 | 9.61656 | 3008 ft | 237 kts | 201° |
| 2026-05-06 15:05 | 53.52017 | 9.60925 | 2997 ft | 216 kts | 186° |
| 2026-05-06 15:06 | 53.50507 | 9.60496 | 3010 ft | 221 kts | 185° |
| 2026-05-06 15:06 | 53.48998 | 9.60327 | 3011 ft | 213 kts | 163° |
| 2026-05-06 15:06 | 53.47739 | 9.61390 | 3014 ft | 199 kts | 126° |
| 2026-05-06 15:06 | 53.47184 | 9.63325 | 3038 ft | 181 kts | 93° |
| 2026-05-06 15:07 | 53.47130 | 9.65423 | 3012 ft | 181 kts | 85° |
| 2026-05-06 15:07 | 53.47301 | 9.67487 | 3007 ft | 177 kts | 66° |
| 2026-05-06 15:07 | 53.47980 | 9.69079 | 2998 ft | 163 kts | 47° |
| 2026-05-06 15:07 | 53.48722 | 9.70441 | 3000 ft | 148 kts | 49° |
| 2026-05-06 15:08 | 53.49449 | 9.71731 | 3007 ft | 164 kts | 47° |
| 2026-05-06 15:08 | 53.50224 | 9.73137 | 3001 ft | 167 kts | 49° |
| 2026-05-06 15:08 | 53.50993 | 9.74617 | 3003 ft | 166 kts | 50° |
| 2026-05-06 15:08 | 53.51744 | 9.76100 | 3004 ft | 167 kts | 51° |
| 2026-05-06 15:09 | 53.52484 | 9.77575 | 2946 ft | 167 kts | 51° |
| 2026-05-06 15:09 | 53.53229 | 9.79067 | 2787 ft | 166 kts | 50° |
| 2026-05-06 15:09 | 53.53976 | 9.80565 | 2569 ft | 164 kts | 51° |
| 2026-05-06 15:09 | 53.54697 | 9.82017 | 2154 ft | 158 kts | 50° |
| 2026-05-06 15:10 | 53.55385 | 9.83397 | 2067 ft | 162 kts | 51° |
| 2026-05-06 15:10 | 53.56123 | 9.84879 | 1895 ft | 168 kts | 50° |
| 2026-05-06 15:10 | 53.56867 | 9.86374 | 1814 ft | 160 kts | 50° |
| 2026-05-06 15:10 | 53.57524 | 9.87720 | 1588 ft | 147 kts | 51° |
| 2026-05-06 15:11 | 53.58158 | 9.89010 | 1395 ft | 139 kts | 50° |
| 2026-05-06 15:11 | 53.58796 | 9.90294 | 1167 ft | 141 kts | 51° |
| 2026-05-06 15:11 | 53.59402 | 9.91536 | 910 ft | 130 kts | 50° |
| 2026-05-06 15:11 | 53.59957 | 9.92644 | 667 ft | 121 kts | 49° |
| 2026-05-06 15:12 | 53.60521 | 9.93747 | 562 ft | 124 kts | 48° |
| 2026-05-06 15:12 | 53.61062 | 9.94831 | 325 ft | 126 kts | 50° |
| 2026-05-06 15:12 | 53.61668 | 9.96043 | 186 ft | 135 kts | 50° |
| 2026-05-06 15:12 | 53.62234 | 9.97192 | 52 ft | 118 kts | 50° |
| 2026-05-06 15:13 | 53.62604 | 9.97948 | 46 ft | 30 kts | 51° |
| 2026-05-06 15:13 | 53.62743 | 9.98223 | 48 ft | 22 kts | 50° |
| 2026-05-06 15:13 | 53.62728 | 9.98376 | 47 ft | 7 kts | 135° |
| 2026-05-06 15:13 | 53.62727 | 9.98377 | 47 ft | 0 kts | 135° |
| 2026-05-06 15:14 | 53.62684 | 9.98442 | 46 ft | 17 kts | 131° |
| 2026-05-06 15:14 | 53.62714 | 9.98602 | 46 ft | 16 kts | 54° |
| 2026-05-06 15:15 | 53.62785 | 9.98748 | 47 ft | 16 kts | 49° |
| 2026-05-06 15:15 | 53.62860 | 9.98895 | 47 ft | 17 kts | 50° |
| 2026-05-06 15:15 | 53.62937 | 9.99054 | 47 ft | 18 kts | 50° |
| 2026-05-06 15:15 | 53.63021 | 9.99220 | 48 ft | 19 kts | 52° |
| 2026-05-06 15:16 | 53.63098 | 9.99400 | 48 ft | 9 kts | 56° |
| 2026-05-06 15:16 | 53.63111 | 9.99432 | 48 ft | 12 kts | 56° |
| 2026-05-06 15:16 | 53.63190 | 9.99606 | 48 ft | 20 kts | 49° |
| 2026-05-06 15:16 | 53.63215 | 9.99654 | 48 ft | 0 kts | 53° |
| 2026-05-06 15:18 | 53.63226 | 9.99692 | 49 ft | 11 kts | 73° |
| 2026-05-06 15:18 | 53.63186 | 9.99793 | 48 ft | 11 kts | 150° |
| 2026-05-06 15:18 | 53.63120 | 9.99852 | 47 ft | 10 kts | 153° |
| 2026-05-06 15:18 | 53.63112 | 9.99904 | 47 ft | 8 kts | 66° |
| 2026-05-06 15:19 | 53.63166 | 10.00009 | 48 ft | 13 kts | 48° |
| 2026-05-06 15:19 | 53.63226 | 10.00128 | 49 ft | 14 kts | 49° |
| 2026-05-06 15:19 | 53.63278 | 10.00235 | 50 ft | 11 kts | 17° |
| 2026-05-06 15:19 | 53.63337 | 10.00234 | 51 ft | 0 kts | 355° |
| 2026-05-06 15:20 | 53.63341 | 10.00233 | 51 ft | 4 kts | 355° |
| 2026-05-06 15:20 | 53.63384 | 10.00226 | 51 ft | 0 kts | 349° |
| 2026-05-06 15:20 | 53.63395 | 10.00213 | 51 ft | 9 kts | 318° |
| 2026-05-06 15:20 | 53.63370 | 10.00163 | 51 ft | 9 kts | 197° |
| 2026-05-06 15:21 | 53.63307 | 10.00127 | 49 ft | 8 kts | 236° |
| 2026-05-06 15:21 | 53.63298 | 10.00107 | 50 ft | 2 kts | 231° |
| 2026-05-06 15:21 | 53.63304 | 10.00060 | 50 ft | 0 kts | 317° |
| 2026-05-06 15:21 | 53.63312 | 10.00047 | 48 ft | 0 kts | 315° |